createdAt,value
2023-05-19T00:01:48.343Z,92.12
2023-05-19T00:04:19.028Z,92.19
2023-05-19T00:06:51.559Z,93.95
2023-05-19T00:09:18.619Z,93.57
2023-05-19T00:11:47.991Z,93.56
2023-05-19T00:14:15.364Z,93.82
2023-05-19T00:16:43.040Z,94.19
2023-05-19T00:19:12.530Z,93.33
2023-05-19T00:21:40.173Z,93.37
2023-05-19T00:24:10.190Z,92.93
2023-05-19T00:26:42.795Z,91.93
2023-05-19T00:29:09.749Z,91.89
2023-05-19T00:31:36.716Z,91.68
2023-05-19T00:34:03.634Z,91.92
2023-05-19T00:36:31.012Z,93.81
2023-05-19T00:38:57.833Z,93.87
2023-05-19T00:41:25.080Z,92.80
2023-05-19T00:43:51.945Z,93.60
2023-05-19T00:46:19.914Z,95.42
2023-05-19T00:48:46.810Z,94.70
2023-05-19T00:51:16.928Z,94.54
2023-05-19T00:53:49.157Z,96.00
2023-05-19T00:56:17.524Z,96.29
2023-05-19T00:58:45.352Z,95.44
2023-05-19T01:01:14.466Z,95.48
2023-05-19T01:03:43.852Z,97.47
2023-05-19T01:06:12.009Z,98.37
2023-05-19T01:08:42.282Z,97.83
2023-05-19T01:11:11.867Z,97.84
2023-05-19T01:13:41.273Z,97.92
2023-05-19T01:16:22.667Z,97.63
2023-05-19T01:19:10.905Z,97.65
2023-05-19T01:22:06.737Z,97.29
2023-05-19T01:25:44.196Z,97.40
2023-05-19T01:29:00.785Z,96.74
2023-05-19T01:31:28.818Z,95.72
2023-05-19T01:33:57.109Z,96.56
2023-05-19T01:36:26.323Z,96.25
2023-05-19T01:38:58.197Z,96.04
2023-05-19T01:41:26.739Z,95.70
2023-05-19T01:43:54.279Z,95.60
2023-05-19T01:46:22.433Z,95.75
2023-05-19T01:48:50.167Z,96.80
2023-05-19T01:51:17.145Z,96.90
2023-05-19T01:53:44.122Z,97.36
2023-05-19T01:56:11.302Z,96.77
2023-05-19T01:58:51.497Z,97.05
2023-05-19T02:01:49.101Z,97.41
2023-05-19T02:04:20.131Z,97.63
2023-05-19T02:07:15.653Z,98.41
2023-05-19T02:10:11.367Z,100.00
2023-05-19T02:12:40.742Z,100.00
2023-05-19T02:15:41.958Z,99.68
2023-05-19T02:18:18.059Z,99.59
2023-05-19T02:20:45.478Z,100.00
2023-05-19T02:23:12.605Z,99.78
2023-05-19T02:25:39.420Z,99.97
2023-05-19T02:28:08.940Z,99.13
2023-05-19T02:30:35.813Z,98.38
2023-05-19T02:33:02.874Z,100.00
2023-05-19T02:35:29.811Z,100.00
2023-05-19T02:37:57.226Z,100.00
2023-05-19T02:40:24.066Z,100.00
2023-05-19T02:42:50.896Z,100.00
2023-05-19T02:45:17.935Z,100.00
2023-05-19T02:47:44.847Z,100.00
2023-05-19T02:50:11.759Z,100.00
2023-05-19T02:52:41.351Z,100.00
2023-05-19T02:55:08.667Z,100.00
2023-05-19T02:57:35.802Z,100.00
2023-05-19T03:00:02.764Z,100.00
2023-05-19T03:02:29.770Z,100.00
2023-05-19T03:04:56.641Z,100.00
2023-05-19T03:07:26.714Z,100.00
2023-05-19T03:09:56.114Z,100.00
2023-05-19T03:12:22.906Z,100.00
2023-05-19T03:14:49.831Z,100.00
2023-05-19T03:17:16.681Z,100.00
2023-05-19T03:19:46.615Z,100.00
2023-05-19T03:22:14.744Z,100.00
2023-05-19T03:24:42.296Z,100.00
2023-05-19T03:27:09.097Z,100.00
2023-05-19T03:29:37.547Z,100.00
2023-05-19T03:32:05.135Z,100.00
2023-05-19T03:34:32.976Z,100.00
2023-05-19T03:36:59.973Z,100.00
2023-05-19T03:39:26.985Z,100.00
2023-05-19T03:41:54.221Z,100.00
2023-05-19T03:44:21.310Z,100.00
2023-05-19T03:46:48.847Z,100.00
2023-05-19T03:49:15.748Z,100.00
2023-05-19T03:51:44.324Z,100.00
2023-05-19T03:54:11.187Z,100.00
2023-05-19T03:56:40.966Z,100.00
2023-05-19T03:59:07.796Z,100.00
2023-05-19T04:01:34.612Z,100.00
2023-05-19T04:04:01.447Z,100.00
2023-05-19T04:06:28.410Z,100.00
2023-05-19T04:08:55.669Z,100.00
2023-05-19T04:11:22.481Z,100.00
2023-05-19T04:13:49.284Z,100.00
2023-05-19T04:16:16.610Z,100.00
2023-05-19T04:18:46.508Z,100.00
2023-05-19T04:21:14.925Z,100.00
2023-05-19T04:23:41.749Z,100.00
2023-05-19T04:26:09.845Z,100.00
2023-05-19T04:28:39.876Z,99.45
2023-05-19T04:31:10.768Z,100.00
2023-05-19T04:33:38.365Z,100.00
2023-05-19T04:36:11.858Z,99.78
2023-05-19T04:38:40.272Z,100.00
2023-05-19T04:41:10.879Z,100.00
2023-05-19T04:43:44.479Z,100.00
2023-05-19T04:46:13.928Z,100.00
2023-05-19T04:48:41.158Z,100.00
2023-05-19T04:51:08.185Z,100.00
2023-05-19T04:53:35.203Z,100.00
2023-05-19T04:56:02.412Z,100.00
2023-05-19T04:58:30.130Z,100.00
2023-05-19T05:00:58.476Z,100.00
2023-05-19T05:03:26.436Z,100.00
2023-05-19T05:05:53.541Z,100.00
2023-05-19T05:08:26.028Z,99.96
2023-05-19T05:10:53.788Z,100.00
2023-05-19T05:13:23.959Z,98.80
2023-05-19T05:15:54.111Z,97.52
2023-05-19T05:18:21.315Z,97.21
2023-05-19T05:20:48.783Z,96.68
2023-05-19T05:23:16.726Z,97.79
2023-05-19T05:25:44.745Z,97.00
2023-05-19T05:28:12.522Z,95.79
2023-05-19T05:30:39.603Z,94.22
2023-05-19T05:33:06.623Z,90.68
2023-05-19T05:35:34.186Z,89.62
2023-05-19T05:38:01.745Z,88.90
2023-05-19T05:40:28.882Z,87.44
2023-05-19T05:42:58.892Z,87.91
2023-05-19T05:45:26.552Z,87.56
2023-05-19T05:47:53.887Z,86.21
2023-05-19T05:50:21.283Z,84.75
2023-05-19T05:52:50.861Z,83.71
2023-05-19T05:55:18.346Z,83.24
2023-05-19T05:57:45.351Z,81.75
2023-05-19T06:00:15.846Z,80.66
2023-05-19T06:02:48.798Z,79.38
2023-05-19T06:05:18.705Z,78.38
2023-05-19T06:07:45.781Z,78.55
2023-05-19T06:10:12.717Z,79.03
2023-05-19T06:12:41.559Z,77.81
2023-05-19T06:15:08.981Z,76.68
2023-05-19T06:17:36.076Z,76.95
2023-05-19T06:20:05.894Z,76.11
2023-05-19T06:22:33.120Z,75.33
2023-05-19T06:25:00.513Z,74.57
2023-05-19T06:27:32.561Z,74.03
2023-05-19T06:30:02.476Z,74.28
2023-05-19T06:32:29.885Z,74.32
2023-05-19T06:34:56.766Z,73.75
2023-05-19T06:37:24.169Z,74.21
2023-05-19T06:39:55.049Z,74.25
2023-05-19T06:42:22.934Z,74.30
2023-05-19T06:44:51.188Z,73.88
2023-05-19T06:47:18.645Z,73.33
2023-05-19T06:49:46.477Z,72.39
2023-05-19T06:52:13.366Z,72.69
2023-05-19T06:54:40.824Z,72.69
2023-05-19T06:57:07.647Z,72.36
2023-05-19T06:59:34.510Z,71.03
2023-05-19T07:02:05.467Z,70.60
2023-05-19T07:04:32.835Z,69.88
2023-05-19T07:06:59.841Z,69.18
2023-05-19T07:09:26.719Z,69.69
2023-05-19T07:11:56.493Z,68.16
2023-05-19T07:14:27.162Z,68.45
2023-05-19T07:16:54.080Z,67.41
2023-05-19T07:19:20.977Z,67.07
2023-05-19T07:21:48.098Z,67.29
2023-05-19T07:24:14.929Z,67.09
2023-05-19T07:26:42.713Z,66.29
2023-05-19T07:29:09.749Z,66.10
2023-05-19T07:31:36.676Z,65.64
2023-05-19T07:34:03.576Z,66.30
2023-05-19T07:36:38.487Z,64.50
2023-05-19T07:39:05.492Z,64.64
2023-05-19T07:41:34.272Z,64.95
2023-05-19T07:44:02.247Z,62.94
2023-05-19T07:46:29.179Z,62.99
2023-05-19T07:48:56.153Z,62.52
2023-05-19T07:51:23.194Z,62.41
2023-05-19T07:53:50.150Z,61.70
2023-05-19T07:56:17.122Z,61.24
2023-05-19T07:58:44.664Z,62.14
2023-05-19T08:01:11.682Z,62.60
2023-05-19T08:03:38.689Z,62.14
2023-05-19T08:06:06.095Z,62.31
2023-05-19T08:08:33.383Z,60.26
2023-05-19T08:11:04.875Z,60.41
2023-05-19T08:13:31.905Z,60.59
2023-05-19T08:15:59.970Z,60.73
2023-05-19T08:18:27.123Z,59.59
2023-05-19T08:20:54.096Z,59.72
2023-05-19T08:23:22.346Z,57.77
2023-05-19T08:25:49.249Z,57.73
2023-05-19T08:28:16.265Z,59.06
2023-05-19T08:30:43.174Z,59.83
2023-05-19T08:33:10.267Z,59.98
2023-05-19T08:35:37.926Z,58.78
2023-05-19T08:38:04.789Z,59.05
2023-05-19T08:40:35.079Z,61.80
2023-05-19T08:43:02.249Z,58.59
2023-05-19T08:45:29.948Z,59.55
2023-05-19T08:47:57.910Z,59.46
2023-05-19T08:50:31.025Z,58.58
2023-05-19T08:53:18.268Z,58.94
2023-05-19T08:56:21.993Z,60.04
2023-05-19T08:58:51.661Z,60.20
2023-05-19T09:01:20.340Z,60.79
2023-05-19T09:03:49.758Z,59.89
2023-05-19T09:06:18.206Z,59.67
2023-05-19T09:08:45.195Z,57.59
2023-05-19T09:11:12.532Z,58.07
2023-05-19T09:13:39.582Z,58.54
2023-05-19T09:16:08.058Z,58.43
2023-05-19T09:18:38.831Z,58.52
2023-05-19T09:21:07.187Z,59.05
2023-05-19T09:23:34.266Z,58.34
2023-05-19T09:26:07.740Z,58.05
2023-05-19T09:28:37.756Z,57.86
2023-05-19T09:31:11.607Z,57.65
2023-05-19T09:33:46.088Z,57.04
2023-05-19T09:36:13.798Z,56.94
2023-05-19T09:38:41.603Z,56.64
2023-05-19T09:41:09.544Z,56.81
2023-05-19T09:43:36.767Z,56.21
2023-05-19T09:46:12.774Z,57.37
2023-05-19T09:48:41.285Z,55.15
2023-05-19T09:51:10.677Z,54.88
2023-05-19T09:53:38.858Z,55.63
2023-05-19T09:56:08.731Z,55.23
2023-05-19T09:58:36.651Z,54.41
2023-05-19T10:01:05.449Z,53.59
2023-05-19T10:03:34.337Z,54.22
2023-05-19T10:06:03.967Z,55.29
2023-05-19T10:08:32.382Z,54.36
2023-05-19T10:11:00.192Z,54.41
2023-05-19T10:13:29.425Z,55.19
2023-05-19T10:15:59.684Z,56.23
2023-05-19T10:18:29.230Z,56.04
2023-05-19T10:20:57.946Z,56.38
2023-05-19T10:23:26.524Z,56.85
2023-05-19T10:25:58.791Z,56.72
2023-05-19T10:28:35.541Z,56.85
2023-05-19T10:31:07.450Z,56.57
2023-05-19T10:34:19.037Z,57.37
2023-05-19T10:37:13.936Z,56.49
2023-05-19T10:39:44.506Z,56.89
2023-05-19T10:42:25.952Z,56.78
2023-05-19T10:45:13.922Z,55.78
2023-05-19T10:47:42.015Z,55.39
2023-05-19T10:50:09.880Z,55.01
2023-05-19T10:52:40.602Z,55.36
2023-05-19T10:55:10.224Z,54.26
2023-05-19T10:57:37.134Z,55.23
2023-05-19T11:00:28.769Z,55.74
2023-05-19T11:03:24.486Z,55.57
2023-05-19T11:05:52.294Z,55.57
2023-05-19T11:08:33.399Z,55.79
2023-05-19T11:11:14.766Z,57.08
2023-05-19T11:13:48.082Z,56.78
2023-05-19T11:16:19.172Z,56.97
2023-05-19T11:18:50.498Z,57.15
2023-05-19T11:21:19.884Z,56.35
2023-05-19T11:23:47.149Z,56.36
2023-05-19T11:26:14.008Z,57.08
2023-05-19T11:28:41.672Z,56.63
2023-05-19T11:31:10.929Z,56.75
2023-05-19T11:33:39.509Z,56.88
2023-05-19T11:36:07.931Z,57.07
2023-05-19T11:38:35.448Z,57.33
2023-05-19T11:41:04.388Z,57.55
2023-05-19T11:43:31.399Z,57.24
2023-05-19T11:45:58.546Z,58.41
2023-05-19T11:48:26.779Z,58.31
2023-05-19T11:50:54.273Z,57.96
2023-05-19T11:53:21.397Z,58.32
2023-05-19T11:55:49.199Z,58.13
2023-05-19T11:58:17.412Z,58.31
2023-05-19T12:00:48.292Z,57.51
2023-05-19T12:03:26.423Z,56.20
2023-05-19T12:05:54.293Z,55.89
2023-05-19T12:08:21.628Z,56.17
2023-05-19T12:10:50.765Z,56.33
2023-05-19T12:13:17.789Z,56.30
2023-05-19T12:15:44.991Z,56.13
2023-05-19T12:18:12.081Z,56.43
2023-05-19T12:20:39.387Z,56.63
2023-05-19T12:23:06.525Z,56.37
2023-05-19T12:25:34.218Z,55.18
2023-05-19T12:28:04.685Z,55.67
2023-05-19T12:30:33.031Z,55.51
2023-05-19T12:33:01.953Z,56.24
2023-05-19T12:35:36.209Z,55.64
2023-05-19T12:38:05.308Z,55.56
2023-05-19T12:40:40.860Z,56.07
2023-05-19T12:43:12.204Z,56.07
2023-05-19T12:45:42.689Z,55.81
2023-05-19T12:48:13.861Z,55.69
2023-05-19T12:50:40.766Z,55.88
2023-05-19T12:53:15.454Z,55.83
2023-05-19T12:55:44.904Z,56.05
2023-05-19T12:58:12.938Z,56.64
2023-05-19T13:00:47.334Z,57.06
2023-05-19T13:03:20.418Z,56.55
2023-05-19T13:05:53.234Z,56.69
2023-05-19T13:08:23.887Z,56.49
2023-05-19T13:10:51.041Z,55.96
2023-05-19T13:13:21.941Z,55.86
2023-05-19T13:15:49.348Z,55.70
2023-05-19T13:18:18.303Z,56.00
2023-05-19T13:20:47.063Z,56.65
2023-05-19T13:23:14.799Z,56.70
2023-05-19T13:25:44.919Z,56.43
2023-05-19T13:28:12.141Z,57.08
2023-05-19T13:30:41.829Z,57.45
2023-05-19T13:33:09.020Z,57.95
2023-05-19T13:35:39.050Z,58.44
2023-05-19T13:38:09.532Z,58.31
2023-05-19T13:40:36.839Z,58.54
2023-05-19T13:43:04.822Z,59.03
2023-05-19T13:45:32.067Z,59.53
2023-05-19T13:47:58.977Z,58.93
2023-05-19T13:50:26.423Z,59.00
2023-05-19T13:52:54.331Z,58.99
2023-05-19T13:55:21.351Z,58.52
2023-05-19T13:57:48.170Z,59.35
2023-05-19T14:00:18.899Z,58.61
2023-05-19T14:02:46.259Z,58.63
2023-05-19T14:05:13.419Z,58.71
2023-05-19T14:07:40.667Z,59.20
2023-05-19T14:10:08.575Z,58.63
2023-05-19T14:12:49.581Z,59.22
2023-05-19T14:15:23.578Z,59.09
2023-05-19T14:17:50.498Z,57.84
2023-05-19T14:20:17.451Z,58.40
2023-05-19T14:22:44.358Z,57.70
2023-05-19T14:25:11.255Z,57.79
2023-05-19T14:27:39.825Z,57.97
2023-05-19T14:30:07.902Z,57.98
2023-05-19T14:32:34.854Z,58.03
2023-05-19T14:35:02.209Z,58.83
2023-05-19T14:37:29.042Z,58.44
2023-05-19T14:39:57.752Z,58.25
2023-05-19T14:42:24.979Z,58.59
2023-05-19T14:44:51.899Z,58.73
2023-05-19T14:47:21.247Z,58.80
2023-05-19T14:49:48.245Z,59.11
2023-05-19T14:52:15.339Z,58.97
2023-05-19T14:54:42.288Z,58.80
2023-05-19T14:57:09.150Z,58.75
2023-05-19T14:59:39.191Z,59.00
2023-05-19T15:02:06.306Z,59.03
2023-05-19T15:04:33.158Z,59.06
2023-05-19T15:09:32.657Z,58.98
2023-05-19T15:12:01.324Z,59.33
2023-05-19T15:14:30.549Z,59.20
2023-05-19T15:17:00.125Z,59.48
2023-05-19T15:19:27.270Z,59.04
2023-05-19T15:21:55.952Z,59.60
2023-05-19T15:24:22.946Z,59.79
2023-05-19T15:26:49.918Z,60.06
2023-05-19T15:29:16.747Z,60.45
2023-05-19T15:31:43.652Z,60.49
2023-05-19T15:34:10.560Z,60.07
2023-05-19T15:36:37.500Z,60.11
2023-05-19T15:39:07.678Z,59.83
2023-05-19T15:41:34.786Z,60.18
2023-05-19T15:44:02.731Z,60.30
2023-05-19T15:46:30.498Z,60.54
2023-05-19T15:48:57.733Z,60.94
2023-05-19T15:51:25.323Z,60.93
2023-05-19T15:53:53.579Z,60.52
2023-05-19T15:56:21.546Z,60.66
2023-05-19T15:58:48.711Z,60.86
2023-05-19T16:01:16.980Z,61.01
2023-05-19T16:03:45.388Z,61.24
2023-05-19T16:06:15.084Z,61.54
2023-05-19T16:08:44.782Z,61.63
2023-05-19T16:11:11.716Z,61.52
2023-05-19T16:13:38.592Z,61.41
2023-05-19T16:16:06.165Z,61.54
2023-05-19T16:18:33.027Z,61.11
2023-05-19T16:20:59.916Z,61.08
2023-05-19T16:23:27.408Z,60.84
2023-05-19T16:25:54.759Z,61.16
2023-05-19T16:28:23.909Z,61.21
2023-05-19T16:30:52.039Z,61.13
2023-05-19T16:33:19.083Z,61.47
2023-05-19T16:35:45.970Z,61.72
2023-05-19T16:38:12.944Z,61.79
2023-05-19T16:40:40.079Z,61.58
2023-05-19T16:43:07.361Z,61.60
2023-05-19T16:45:38.290Z,61.45
2023-05-19T16:48:05.723Z,61.58
2023-05-19T16:50:35.306Z,61.42
2023-05-19T16:53:02.557Z,61.07
2023-05-19T16:55:29.323Z,61.70
2023-05-19T16:57:56.337Z,61.39
2023-05-19T17:00:23.362Z,61.33
2023-05-19T17:02:50.472Z,61.92
2023-05-19T17:05:17.470Z,61.73
2023-05-19T17:07:44.408Z,61.96
2023-05-19T17:10:11.355Z,62.38
2023-05-19T17:12:38.323Z,61.81
2023-05-19T17:15:06.484Z,62.06
2023-05-19T17:17:33.397Z,61.97
2023-05-19T17:20:00.703Z,62.28
2023-05-19T17:22:29.490Z,62.61
2023-05-19T17:24:57.417Z,62.70
2023-05-19T17:27:24.395Z,62.43
2023-05-19T17:29:51.180Z,62.35
2023-05-19T17:32:18.162Z,62.48
2023-05-19T17:34:45.044Z,62.94
2023-05-19T17:37:11.972Z,63.14
2023-05-19T17:39:38.744Z,63.71
2023-05-19T17:42:10.992Z,63.75
2023-05-19T17:44:37.813Z,63.47
2023-05-19T17:47:07.067Z,63.79
2023-05-19T17:49:34.101Z,63.92
2023-05-19T17:52:01.400Z,64.31
2023-05-19T17:54:28.827Z,64.45
2023-05-19T17:57:01.472Z,64.60
2023-05-19T17:59:28.771Z,65.13
2023-05-19T18:01:56.566Z,65.45
2023-05-19T18:04:23.800Z,65.88
2023-05-19T18:06:52.748Z,66.38
2023-05-19T18:09:23.059Z,68.66
2023-05-19T18:11:50.091Z,69.51
2023-05-19T18:14:16.964Z,69.93
2023-05-19T18:16:44.014Z,71.92
2023-05-19T18:19:11.400Z,72.94
2023-05-19T18:21:38.389Z,73.67
2023-05-19T18:24:05.880Z,73.96
2023-05-19T18:26:33.549Z,75.01
2023-05-19T18:29:02.759Z,75.29
2023-05-19T18:31:29.747Z,75.95
2023-05-19T18:33:56.852Z,76.68
2023-05-19T18:36:24.092Z,77.49
2023-05-19T18:38:50.979Z,78.55
2023-05-19T18:41:18.316Z,79.01
2023-05-19T18:43:45.280Z,79.35
2023-05-19T18:46:13.774Z,80.25
2023-05-19T18:48:41.008Z,81.31
2023-05-19T18:51:08.923Z,81.94
2023-05-19T18:53:36.946Z,82.68
2023-05-19T18:56:04.361Z,83.52
2023-05-19T18:58:31.364Z,84.71
2023-05-19T19:00:58.892Z,85.41
2023-05-19T19:03:28.721Z,86.50
2023-05-19T19:06:01.639Z,88.58
2023-05-19T19:08:28.809Z,90.17
2023-05-19T19:11:00.334Z,91.32
2023-05-19T19:13:30.445Z,91.21
2023-05-19T19:15:57.553Z,92.33
2023-05-19T19:18:26.033Z,92.93
2023-05-19T19:20:53.214Z,92.91
2023-05-19T19:23:26.118Z,92.44
2023-05-19T19:25:53.619Z,92.57
2023-05-19T19:28:20.667Z,92.96
2023-05-19T19:30:48.072Z,93.70
2023-05-19T19:33:15.351Z,94.17
2023-05-19T19:35:45.102Z,95.00
2023-05-19T19:38:12.713Z,95.05
2023-05-19T19:40:39.521Z,94.99
2023-05-19T19:43:07.278Z,94.61
2023-05-19T19:45:39.124Z,95.59
2023-05-19T19:48:07.169Z,96.32
2023-05-19T19:50:34.760Z,97.24
2023-05-19T19:53:01.929Z,97.77
2023-05-19T19:55:30.790Z,97.45
2023-05-19T19:58:00.876Z,98.10
2023-05-19T20:00:27.762Z,98.70
2023-05-19T20:03:03.571Z,97.40
2023-05-19T20:05:32.491Z,98.95
2023-05-19T20:07:59.430Z,99.61
2023-05-19T20:10:26.309Z,99.71
2023-05-19T20:12:53.206Z,99.53
2023-05-19T20:15:20.212Z,99.78
2023-05-19T20:17:47.052Z,99.99
2023-05-19T20:20:23.167Z,99.53
2023-05-19T20:22:50.022Z,99.68
2023-05-19T20:25:16.822Z,100.00
2023-05-19T20:27:43.652Z,100.00
2023-05-19T20:30:20.063Z,100.00
2023-05-19T20:32:49.318Z,100.00
2023-05-19T20:35:47.487Z,100.00
2023-05-19T20:38:17.647Z,100.00
2023-05-19T20:40:47.376Z,100.00
2023-05-19T20:43:14.757Z,100.00
2023-05-19T20:45:46.752Z,100.00
2023-05-19T20:48:19.273Z,100.00
2023-05-19T20:51:09.936Z,100.00
2023-05-19T20:54:07.320Z,100.00
2023-05-19T20:56:34.785Z,100.00
2023-05-19T20:59:05.863Z,100.00
2023-05-19T21:01:42.891Z,100.00
2023-05-19T21:04:11.237Z,100.00
2023-05-19T21:06:45.299Z,100.00
2023-05-19T21:09:14.722Z,100.00
2023-05-19T21:11:53.438Z,100.00
2023-05-19T21:17:10.568Z,100.00
2023-05-19T21:19:47.320Z,100.00
2023-05-19T21:22:17.766Z,100.00
2023-05-19T21:24:45.579Z,100.00
2023-05-19T21:27:12.387Z,100.00
2023-05-19T21:29:39.261Z,100.00
2023-05-19T21:32:06.605Z,100.00
2023-05-19T21:34:33.814Z,100.00
2023-05-19T21:37:01.157Z,100.00
2023-05-19T21:39:27.948Z,100.00
2023-05-19T21:41:54.964Z,100.00
2023-05-19T21:44:23.737Z,100.00
2023-05-19T21:46:50.926Z,100.00
2023-05-19T21:49:17.937Z,100.00
2023-05-19T21:51:44.758Z,100.00
2023-05-19T21:54:11.748Z,100.00
2023-05-19T21:56:38.659Z,100.00
2023-05-19T21:59:05.965Z,100.00
2023-05-19T22:01:32.811Z,100.00
2023-05-19T22:03:59.980Z,100.00
2023-05-19T22:06:26.937Z,100.00
2023-05-19T22:08:53.797Z,100.00
2023-05-19T22:11:21.510Z,100.00
2023-05-19T22:13:48.394Z,100.00
2023-05-19T22:16:15.477Z,100.00
2023-05-19T22:18:44.992Z,100.00
2023-05-19T22:21:11.882Z,100.00
2023-05-19T22:23:38.689Z,100.00
2023-05-19T22:26:05.983Z,100.00
2023-05-19T22:28:32.872Z,100.00
2023-05-19T22:30:59.742Z,100.00
2023-05-19T22:33:26.511Z,100.00
2023-05-19T22:35:53.500Z,100.00
2023-05-19T22:38:20.421Z,100.00
2023-05-19T22:40:47.410Z,100.00
2023-05-19T22:43:14.267Z,100.00
2023-05-19T22:45:41.416Z,100.00
2023-05-19T22:48:11.458Z,100.00
2023-05-19T22:50:38.429Z,100.00
2023-05-19T22:53:05.486Z,100.00
2023-05-19T22:55:32.533Z,100.00
2023-05-19T22:57:59.603Z,100.00
2023-05-19T23:00:26.562Z,100.00
2023-05-19T23:02:58.158Z,100.00
2023-05-19T23:05:28.165Z,100.00
2023-05-19T23:07:55.083Z,100.00
2023-05-19T23:10:21.847Z,100.00
2023-05-19T23:12:48.823Z,100.00
2023-05-19T23:15:15.762Z,100.00
2023-05-19T23:17:42.776Z,100.00
2023-05-19T23:20:10.828Z,100.00
2023-05-19T23:22:37.683Z,100.00
2023-05-19T23:25:07.995Z,100.00
2023-05-19T23:27:36.410Z,100.00
2023-05-19T23:30:04.371Z,100.00
2023-05-19T23:32:31.220Z,100.00
2023-05-19T23:34:58.073Z,100.00
2023-05-19T23:37:24.964Z,100.00
2023-05-19T23:39:51.797Z,100.00
2023-05-19T23:42:18.748Z,100.00
2023-05-19T23:44:45.621Z,100.00
2023-05-19T23:47:12.455Z,100.00
2023-05-19T23:49:39.301Z,100.00
2023-05-19T23:52:06.866Z,100.00
2023-05-19T23:54:33.766Z,100.00
2023-05-19T23:57:04.082Z,100.00
2023-05-19T23:59:31.363Z,100.00
